sensor_id;sensor_type;location;lat;lon;timestamp;P1;durP1;ratioP1;P2;durP2;ratioP2
21721;SDS011;11023;48.274;7.794;2022-08-19T00:02:06;19.60;;;17.38;;
21721;SDS011;11023;48.274;7.794;2022-08-19T00:04:32;23.55;;;19.13;;
21721;SDS011;11023;48.274;7.794;2022-08-19T00:07:03;22.65;;;19.52;;
21721;SDS011;11023;48.274;7.794;2022-08-19T00:09:30;21.02;;;18.73;;
21721;SDS011;11023;48.274;7.794;2022-08-19T00:11:57;22.42;;;19.15;;
21721;SDS011;11023;48.274;7.794;2022-08-19T00:14:24;21.42;;;18.45;;
21721;SDS011;11023;48.274;7.794;2022-08-19T00:16:51;22.40;;;19.20;;
21721;SDS011;11023;48.274;7.794;2022-08-19T00:19:19;22.45;;;19.85;;
21721;SDS011;11023;48.274;7.794;2022-08-19T00:21:45;25.10;;;20.73;;
21721;SDS011;11023;48.274;7.794;2022-08-19T00:24:12;22.98;;;20.30;;
21721;SDS011;11023;48.274;7.794;2022-08-19T00:26:39;25.13;;;20.98;;
21721;SDS011;11023;48.274;7.794;2022-08-19T00:29:07;26.67;;;20.15;;
21721;SDS011;11023;48.274;7.794;2022-08-19T00:31:35;23.63;;;21.13;;
21721;SDS011;11023;48.274;7.794;2022-08-19T00:34:01;31.13;;;21.58;;
21721;SDS011;11023;48.274;7.794;2022-08-19T00:36:28;24.38;;;19.27;;
21721;SDS011;11023;48.274;7.794;2022-08-19T00:38:54;22.42;;;18.95;;
21721;SDS011;11023;48.274;7.794;2022-08-19T00:41:20;30.50;;;22.50;;
21721;SDS011;11023;48.274;7.794;2022-08-19T00:44:01;23.05;;;19.30;;
21721;SDS011;11023;48.274;7.794;2022-08-19T00:46:30;28.80;;;23.38;;
21721;SDS011;11023;48.274;7.794;2022-08-19T00:48:57;28.33;;;24.40;;
21721;SDS011;11023;48.274;7.794;2022-08-19T00:51:24;31.45;;;25.55;;
21721;SDS011;11023;48.274;7.794;2022-08-19T00:53:52;30.83;;;25.90;;
21721;SDS011;11023;48.274;7.794;2022-08-19T00:56:20;27.88;;;24.52;;
21721;SDS011;11023;48.274;7.794;2022-08-19T00:58:45;24.65;;;21.70;;
21721;SDS011;11023;48.274;7.794;2022-08-19T01:01:11;27.58;;;22.30;;
21721;SDS011;11023;48.274;7.794;2022-08-19T01:03:38;29.63;;;22.98;;
21721;SDS011;11023;48.274;7.794;2022-08-19T01:06:04;24.65;;;20.42;;
21721;SDS011;11023;48.274;7.794;2022-08-19T01:08:30;22.80;;;20.02;;
21721;SDS011;11023;48.274;7.794;2022-08-19T01:10:56;23.73;;;19.77;;
21721;SDS011;11023;48.274;7.794;2022-08-19T01:13:25;21.95;;;18.67;;
21721;SDS011;11023;48.274;7.794;2022-08-19T01:16:00;24.60;;;20.02;;
21721;SDS011;11023;48.274;7.794;2022-08-19T01:18:32;23.15;;;19.88;;
21721;SDS011;11023;48.274;7.794;2022-08-19T01:21:02;25.42;;;19.77;;
21721;SDS011;11023;48.274;7.794;2022-08-19T01:23:32;21.60;;;19.30;;
21721;SDS011;11023;48.274;7.794;2022-08-19T01:26:19;24.13;;;18.77;;
21721;SDS011;11023;48.274;7.794;2022-08-19T01:28:47;22.50;;;19.05;;
21721;SDS011;11023;48.274;7.794;2022-08-19T01:31:16;22.58;;;17.75;;
21721;SDS011;11023;48.274;7.794;2022-08-19T01:33:44;25.08;;;18.02;;
21721;SDS011;11023;48.274;7.794;2022-08-19T01:36:14;23.33;;;17.70;;
21721;SDS011;11023;48.274;7.794;2022-08-19T01:38:46;23.20;;;17.25;;
21721;SDS011;11023;48.274;7.794;2022-08-19T01:41:14;21.48;;;17.95;;
21721;SDS011;11023;48.274;7.794;2022-08-19T01:43:41;22.25;;;17.55;;
21721;SDS011;11023;48.274;7.794;2022-08-19T01:46:06;18.42;;;15.73;;
21721;SDS011;11023;48.274;7.794;2022-08-19T01:48:41;16.13;;;14.43;;
21721;SDS011;11023;48.274;7.794;2022-08-19T01:51:08;19.45;;;16.38;;
21721;SDS011;11023;48.274;7.794;2022-08-19T01:53:36;19.67;;;15.73;;
21721;SDS011;11023;48.274;7.794;2022-08-19T01:56:02;16.35;;;14.45;;
21721;SDS011;11023;48.274;7.794;2022-08-19T01:58:30;22.20;;;17.50;;
21721;SDS011;11023;48.274;7.794;2022-08-19T02:01:01;22.88;;;18.85;;
21721;SDS011;11023;48.274;7.794;2022-08-19T02:03:28;20.98;;;15.95;;
21721;SDS011;11023;48.274;7.794;2022-08-19T02:05:58;16.60;;;13.73;;
21721;SDS011;11023;48.274;7.794;2022-08-19T02:08:28;21.55;;;16.52;;
21721;SDS011;11023;48.274;7.794;2022-08-19T02:10:55;19.90;;;15.73;;
21721;SDS011;11023;48.274;7.794;2022-08-19T02:13:21;17.15;;;15.20;;
21721;SDS011;11023;48.274;7.794;2022-08-19T02:15:47;20.85;;;16.85;;
21721;SDS011;11023;48.274;7.794;2022-08-19T02:18:13;18.08;;;16.17;;
21721;SDS011;11023;48.274;7.794;2022-08-19T02:20:39;15.82;;;14.25;;
21721;SDS011;11023;48.274;7.794;2022-08-19T02:25:36;18.40;;;14.55;;
21721;SDS011;11023;48.274;7.794;2022-08-19T02:28:02;16.75;;;15.05;;
21721;SDS011;11023;48.274;7.794;2022-08-19T02:30:27;17.42;;;14.73;;
21721;SDS011;11023;48.274;7.794;2022-08-19T02:32:53;13.27;;;11.88;;
21721;SDS011;11023;48.274;7.794;2022-08-19T02:35:19;15.00;;;13.48;;
21721;SDS011;11023;48.274;7.794;2022-08-19T02:37:46;16.08;;;12.95;;
21721;SDS011;11023;48.274;7.794;2022-08-19T02:40:31;14.25;;;12.75;;
21721;SDS011;11023;48.274;7.794;2022-08-19T02:43:02;13.82;;;12.43;;
21721;SDS011;11023;48.274;7.794;2022-08-19T02:45:32;13.55;;;12.25;;
21721;SDS011;11023;48.274;7.794;2022-08-19T02:47:59;14.80;;;13.40;;
21721;SDS011;11023;48.274;7.794;2022-08-19T02:50:25;14.73;;;13.25;;
21721;SDS011;11023;48.274;7.794;2022-08-19T02:52:50;16.17;;;14.52;;
21721;SDS011;11023;48.274;7.794;2022-08-19T02:55:16;16.35;;;14.35;;
21721;SDS011;11023;48.274;7.794;2022-08-19T02:57:42;14.15;;;12.77;;
21721;SDS011;11023;48.274;7.794;2022-08-19T03:00:08;16.88;;;15.00;;
21721;SDS011;11023;48.274;7.794;2022-08-19T03:02:37;18.17;;;16.17;;
21721;SDS011;11023;48.274;7.794;2022-08-19T03:05:04;16.65;;;14.95;;
21721;SDS011;11023;48.274;7.794;2022-08-19T03:07:30;19.23;;;17.08;;
21721;SDS011;11023;48.274;7.794;2022-08-19T03:09:56;20.50;;;18.40;;
21721;SDS011;11023;48.274;7.794;2022-08-19T03:12:21;20.98;;;18.85;;
21721;SDS011;11023;48.274;7.794;2022-08-19T03:14:47;22.33;;;18.75;;
21721;SDS011;11023;48.274;7.794;2022-08-19T03:17:13;20.25;;;18.13;;
21721;SDS011;11023;48.274;7.794;2022-08-19T03:19:38;20.52;;;18.42;;
21721;SDS011;11023;48.274;7.794;2022-08-19T03:22:04;20.02;;;18.00;;
21721;SDS011;11023;48.274;7.794;2022-08-19T03:24:30;27.58;;;21.73;;
21721;SDS011;11023;48.274;7.794;2022-08-19T03:26:57;27.40;;;22.00;;
21721;SDS011;11023;48.274;7.794;2022-08-19T03:29:24;23.30;;;20.20;;
21721;SDS011;11023;48.274;7.794;2022-08-19T03:31:55;22.48;;;18.65;;
21721;SDS011;11023;48.274;7.794;2022-08-19T03:34:23;27.88;;;23.25;;
21721;SDS011;11023;48.274;7.794;2022-08-19T03:36:54;22.40;;;19.30;;
21721;SDS011;11023;48.274;7.794;2022-08-19T03:39:21;23.98;;;20.45;;
21721;SDS011;11023;48.274;7.794;2022-08-19T03:41:50;22.77;;;20.02;;
21721;SDS011;11023;48.274;7.794;2022-08-19T03:44:18;22.80;;;19.98;;
21721;SDS011;11023;48.274;7.794;2022-08-19T03:46:54;27.90;;;23.10;;
21721;SDS011;11023;48.274;7.794;2022-08-19T03:49:21;27.80;;;23.67;;
21721;SDS011;11023;48.274;7.794;2022-08-19T03:51:49;30.40;;;23.05;;
21721;SDS011;11023;48.274;7.794;2022-08-19T03:54:16;26.45;;;22.52;;
21721;SDS011;11023;48.274;7.794;2022-08-19T03:56:44;23.63;;;21.13;;
21721;SDS011;11023;48.274;7.794;2022-08-19T03:59:13;24.17;;;21.08;;
21721;SDS011;11023;48.274;7.794;2022-08-19T04:01:41;26.92;;;22.02;;
21721;SDS011;11023;48.274;7.794;2022-08-19T04:04:07;27.75;;;22.55;;
21721;SDS011;11023;48.274;7.794;2022-08-19T04:06:34;28.52;;;22.25;;
21721;SDS011;11023;48.274;7.794;2022-08-19T04:09:03;29.13;;;24.98;;
21721;SDS011;11023;48.274;7.794;2022-08-19T04:11:31;32.13;;;23.70;;
21721;SDS011;11023;48.274;7.794;2022-08-19T04:14:01;27.80;;;24.40;;
21721;SDS011;11023;48.274;7.794;2022-08-19T04:16:28;33.92;;;25.77;;
21721;SDS011;11023;48.274;7.794;2022-08-19T04:18:54;25.90;;;22.65;;
21721;SDS011;11023;48.274;7.794;2022-08-19T04:21:25;31.08;;;25.17;;
21721;SDS011;11023;48.274;7.794;2022-08-19T04:23:52;30.50;;;25.00;;
21721;SDS011;11023;48.274;7.794;2022-08-19T04:26:21;29.52;;;26.20;;
21721;SDS011;11023;48.274;7.794;2022-08-19T04:28:53;25.45;;;22.30;;
21721;SDS011;11023;48.274;7.794;2022-08-19T04:31:20;30.83;;;25.77;;
21721;SDS011;11023;48.274;7.794;2022-08-19T04:33:51;31.77;;;25.83;;
21721;SDS011;11023;48.274;7.794;2022-08-19T04:36:22;29.08;;;24.88;;
21721;SDS011;11023;48.274;7.794;2022-08-19T04:38:49;30.73;;;25.92;;
21721;SDS011;11023;48.274;7.794;2022-08-19T04:41:19;32.45;;;24.10;;
21721;SDS011;11023;48.274;7.794;2022-08-19T04:44:04;29.25;;;24.55;;
21721;SDS011;11023;48.274;7.794;2022-08-19T04:46:30;31.45;;;24.98;;
21721;SDS011;11023;48.274;7.794;2022-08-19T04:48:56;32.70;;;25.08;;
21721;SDS011;11023;48.274;7.794;2022-08-19T04:51:24;30.13;;;24.70;;
21721;SDS011;11023;48.274;7.794;2022-08-19T04:53:49;28.52;;;24.13;;
21721;SDS011;11023;48.274;7.794;2022-08-19T04:56:16;30.85;;;25.60;;
21721;SDS011;11023;48.274;7.794;2022-08-19T04:58:46;27.38;;;23.65;;
21721;SDS011;11023;48.274;7.794;2022-08-19T05:01:13;29.35;;;26.23;;
21721;SDS011;11023;48.274;7.794;2022-08-19T05:03:42;30.73;;;24.83;;
21721;SDS011;11023;48.274;7.794;2022-08-19T05:06:10;28.33;;;23.77;;
21721;SDS011;11023;48.274;7.794;2022-08-19T05:08:39;29.77;;;25.58;;
21721;SDS011;11023;48.274;7.794;2022-08-19T05:11:09;33.67;;;27.65;;
21721;SDS011;11023;48.274;7.794;2022-08-19T05:13:40;33.67;;;26.92;;
21721;SDS011;11023;48.274;7.794;2022-08-19T05:16:08;27.80;;;24.08;;
21721;SDS011;11023;48.274;7.794;2022-08-19T05:18:35;29.23;;;23.35;;
21721;SDS011;11023;48.274;7.794;2022-08-19T05:21:20;29.92;;;24.80;;
21721;SDS011;11023;48.274;7.794;2022-08-19T05:24:05;29.85;;;25.63;;
21721;SDS011;11023;48.274;7.794;2022-08-19T05:26:37;32.00;;;24.45;;
21721;SDS011;11023;48.274;7.794;2022-08-19T05:29:04;31.83;;;24.45;;
21721;SDS011;11023;48.274;7.794;2022-08-19T05:31:30;34.67;;;26.13;;
21721;SDS011;11023;48.274;7.794;2022-08-19T05:33:56;28.88;;;25.23;;
21721;SDS011;11023;48.274;7.794;2022-08-19T05:36:24;29.15;;;24.13;;
21721;SDS011;11023;48.274;7.794;2022-08-19T05:38:51;29.38;;;24.63;;
21721;SDS011;11023;48.274;7.794;2022-08-19T05:41:18;28.80;;;22.50;;
21721;SDS011;11023;48.274;7.794;2022-08-19T05:43:44;28.80;;;24.83;;
21721;SDS011;11023;48.274;7.794;2022-08-19T05:46:15;29.00;;;24.52;;
21721;SDS011;11023;48.274;7.794;2022-08-19T05:48:44;30.95;;;24.13;;
21721;SDS011;11023;48.274;7.794;2022-08-19T05:51:11;26.80;;;23.85;;
21721;SDS011;11023;48.274;7.794;2022-08-19T05:53:37;29.33;;;24.98;;
21721;SDS011;11023;48.274;7.794;2022-08-19T05:56:06;29.27;;;24.67;;
21721;SDS011;11023;48.274;7.794;2022-08-19T05:58:35;28.63;;;23.45;;
21721;SDS011;11023;48.274;7.794;2022-08-19T06:01:01;30.08;;;24.88;;
21721;SDS011;11023;48.274;7.794;2022-08-19T06:03:31;27.05;;;23.17;;
21721;SDS011;11023;48.274;7.794;2022-08-19T06:05:58;27.00;;;24.10;;
21721;SDS011;11023;48.274;7.794;2022-08-19T06:08:25;25.80;;;22.85;;
21721;SDS011;11023;48.274;7.794;2022-08-19T06:10:51;25.08;;;21.98;;
21721;SDS011;11023;48.274;7.794;2022-08-19T06:13:18;28.45;;;24.48;;
21721;SDS011;11023;48.274;7.794;2022-08-19T06:15:44;28.48;;;24.30;;
21721;SDS011;11023;48.274;7.794;2022-08-19T06:18:11;29.60;;;24.23;;
21721;SDS011;11023;48.274;7.794;2022-08-19T06:20:38;29.15;;;24.83;;
21721;SDS011;11023;48.274;7.794;2022-08-19T06:23:04;24.77;;;21.77;;
21721;SDS011;11023;48.274;7.794;2022-08-19T06:25:30;31.08;;;25.50;;
21721;SDS011;11023;48.274;7.794;2022-08-19T06:27:55;28.27;;;23.42;;
21721;SDS011;11023;48.274;7.794;2022-08-19T06:30:21;31.05;;;24.83;;
21721;SDS011;11023;48.274;7.794;2022-08-19T06:32:47;31.63;;;25.95;;
21721;SDS011;11023;48.274;7.794;2022-08-19T06:35:12;27.63;;;24.63;;
21721;SDS011;11023;48.274;7.794;2022-08-19T06:37:39;31.05;;;25.58;;
21721;SDS011;11023;48.274;7.794;2022-08-19T06:40:06;27.98;;;24.05;;
21721;SDS011;11023;48.274;7.794;2022-08-19T06:42:34;27.45;;;23.55;;
21721;SDS011;11023;48.274;7.794;2022-08-19T06:45:00;28.80;;;24.50;;
21721;SDS011;11023;48.274;7.794;2022-08-19T06:47:29;25.52;;;21.23;;
21721;SDS011;11023;48.274;7.794;2022-08-19T06:49:56;27.17;;;23.40;;
21721;SDS011;11023;48.274;7.794;2022-08-19T06:52:26;28.42;;;23.65;;
21721;SDS011;11023;48.274;7.794;2022-08-19T06:54:52;25.33;;;22.65;;
21721;SDS011;11023;48.274;7.794;2022-08-19T06:57:21;25.05;;;22.35;;
21721;SDS011;11023;48.274;7.794;2022-08-19T06:59:46;26.55;;;22.33;;
21721;SDS011;11023;48.274;7.794;2022-08-19T07:02:12;25.45;;;22.75;;
21721;SDS011;11023;48.274;7.794;2022-08-19T07:04:38;28.80;;;24.10;;
21721;SDS011;11023;48.274;7.794;2022-08-19T07:07:06;28.23;;;22.70;;
21721;SDS011;11023;48.274;7.794;2022-08-19T07:09:34;29.08;;;23.70;;
21721;SDS011;11023;48.274;7.794;2022-08-19T07:12:02;25.95;;;23.15;;
21721;SDS011;11023;48.274;7.794;2022-08-19T07:14:29;26.52;;;22.88;;
21721;SDS011;11023;48.274;7.794;2022-08-19T07:16:55;24.23;;;21.63;;
21721;SDS011;11023;48.274;7.794;2022-08-19T07:19:23;28.80;;;23.27;;
21721;SDS011;11023;48.274;7.794;2022-08-19T07:21:51;28.05;;;22.23;;
21721;SDS011;11023;48.274;7.794;2022-08-19T07:24:18;21.00;;;18.63;;
21721;SDS011;11023;48.274;7.794;2022-08-19T07:26:48;25.65;;;22.33;;
21721;SDS011;11023;48.274;7.794;2022-08-19T07:29:16;26.98;;;24.13;;
21721;SDS011;11023;48.274;7.794;2022-08-19T07:31:43;25.60;;;22.33;;
21721;SDS011;11023;48.274;7.794;2022-08-19T07:34:09;25.98;;;22.95;;
21721;SDS011;11023;48.274;7.794;2022-08-19T07:36:39;24.65;;;21.85;;
21721;SDS011;11023;48.274;7.794;2022-08-19T07:39:29;26.38;;;20.80;;
21721;SDS011;11023;48.274;7.794;2022-08-19T07:41:55;23.02;;;20.63;;
21721;SDS011;11023;48.274;7.794;2022-08-19T07:44:21;22.13;;;19.73;;
21721;SDS011;11023;48.274;7.794;2022-08-19T07:46:49;23.85;;;20.90;;
21721;SDS011;11023;48.274;7.794;2022-08-19T07:49:17;25.48;;;21.00;;
21721;SDS011;11023;48.274;7.794;2022-08-19T07:51:49;21.40;;;19.17;;
21721;SDS011;11023;48.274;7.794;2022-08-19T07:54:17;25.27;;;18.35;;
21721;SDS011;11023;48.274;7.794;2022-08-19T07:56:44;21.92;;;18.30;;
21721;SDS011;11023;48.274;7.794;2022-08-19T07:59:10;23.02;;;20.52;;
21721;SDS011;11023;48.274;7.794;2022-08-19T08:01:37;26.00;;;20.92;;
21721;SDS011;11023;48.274;7.794;2022-08-19T08:04:05;19.70;;;17.60;;
21721;SDS011;11023;48.274;7.794;2022-08-19T08:06:50;26.17;;;21.02;;
21721;SDS011;11023;48.274;7.794;2022-08-19T08:09:37;20.45;;;18.23;;
21721;SDS011;11023;48.274;7.794;2022-08-19T08:14:34;22.45;;;20.13;;
21721;SDS011;11023;48.274;7.794;2022-08-19T08:17:06;24.15;;;18.75;;
21721;SDS011;11023;48.274;7.794;2022-08-19T08:19:32;19.80;;;17.73;;
21721;SDS011;11023;48.274;7.794;2022-08-19T08:21:59;21.08;;;18.85;;
21721;SDS011;11023;48.274;7.794;2022-08-19T08:26:55;21.15;;;17.38;;
21721;SDS011;11023;48.274;7.794;2022-08-19T08:29:22;23.80;;;19.52;;
21721;SDS011;11023;48.274;7.794;2022-08-19T08:31:48;22.60;;;19.63;;
21721;SDS011;11023;48.274;7.794;2022-08-19T08:34:14;24.70;;;21.52;;
21721;SDS011;11023;48.274;7.794;2022-08-19T08:36:41;23.10;;;19.80;;
21721;SDS011;11023;48.274;7.794;2022-08-19T08:39:10;23.40;;;20.85;;
21721;SDS011;11023;48.274;7.794;2022-08-19T08:44:27;21.40;;;18.88;;
21721;SDS011;11023;48.274;7.794;2022-08-19T08:47:04;21.88;;;19.25;;
21721;SDS011;11023;48.274;7.794;2022-08-19T08:49:41;19.55;;;17.52;;
21721;SDS011;11023;48.274;7.794;2022-08-19T08:52:10;24.25;;;20.67;;
21721;SDS011;11023;48.274;7.794;2022-08-19T08:54:42;21.92;;;19.52;;
21721;SDS011;11023;48.274;7.794;2022-08-19T08:57:12;20.65;;;18.45;;
21721;SDS011;11023;48.274;7.794;2022-08-19T08:59:40;22.52;;;18.73;;
21721;SDS011;11023;48.274;7.794;2022-08-19T09:02:08;18.65;;;16.45;;
21721;SDS011;11023;48.274;7.794;2022-08-19T09:04:35;24.52;;;21.52;;
21721;SDS011;11023;48.274;7.794;2022-08-19T09:09:42;22.27;;;18.52;;
21721;SDS011;11023;48.274;7.794;2022-08-19T09:12:12;23.00;;;19.50;;
21721;SDS011;11023;48.274;7.794;2022-08-19T09:14:57;24.27;;;21.00;;
21721;SDS011;11023;48.274;7.794;2022-08-19T09:17:28;22.10;;;19.25;;
21721;SDS011;11023;48.274;7.794;2022-08-19T09:22:41;24.02;;;20.60;;
21721;SDS011;11023;48.274;7.794;2022-08-19T09:25:11;23.83;;;21.23;;
21721;SDS011;11023;48.274;7.794;2022-08-19T09:27:39;22.05;;;18.63;;
21721;SDS011;11023;48.274;7.794;2022-08-19T09:30:06;23.63;;;19.20;;
21721;SDS011;11023;48.274;7.794;2022-08-19T09:32:33;20.90;;;18.15;;
21721;SDS011;11023;48.274;7.794;2022-08-19T09:34:59;24.60;;;20.33;;
21721;SDS011;11023;48.274;7.794;2022-08-19T09:37:25;20.27;;;18.13;;
21721;SDS011;11023;48.274;7.794;2022-08-19T09:39:52;25.83;;;22.05;;
21721;SDS011;11023;48.274;7.794;2022-08-19T09:42:20;23.55;;;21.02;;
21721;SDS011;11023;48.274;7.794;2022-08-19T09:44:46;24.38;;;20.85;;
21721;SDS011;11023;48.274;7.794;2022-08-19T09:47:12;26.15;;;19.25;;
21721;SDS011;11023;48.274;7.794;2022-08-19T09:49:38;24.13;;;19.88;;
21721;SDS011;11023;48.274;7.794;2022-08-19T09:52:08;27.30;;;21.90;;
21721;SDS011;11023;48.274;7.794;2022-08-19T09:54:35;23.75;;;19.52;;
21721;SDS011;11023;48.274;7.794;2022-08-19T09:57:01;22.20;;;19.13;;
21721;SDS011;11023;48.274;7.794;2022-08-19T09:59:27;21.48;;;18.38;;
21721;SDS011;11023;48.274;7.794;2022-08-19T10:01:53;19.45;;;17.35;;
21721;SDS011;11023;48.274;7.794;2022-08-19T10:04:20;25.05;;;17.92;;
21721;SDS011;11023;48.274;7.794;2022-08-19T10:06:46;22.48;;;20.02;;
21721;SDS011;11023;48.274;7.794;2022-08-19T10:09:14;19.45;;;17.33;;
21721;SDS011;11023;48.274;7.794;2022-08-19T10:11:42;22.25;;;19.88;;
21721;SDS011;11023;48.274;7.794;2022-08-19T10:14:14;23.20;;;20.03;;
21721;SDS011;11023;48.274;7.794;2022-08-19T10:16:41;23.20;;;20.27;;
21721;SDS011;11023;48.274;7.794;2022-08-19T10:19:07;24.35;;;20.80;;
21721;SDS011;11023;48.274;7.794;2022-08-19T10:21:34;19.67;;;17.52;;
21721;SDS011;11023;48.274;7.794;2022-08-19T10:24:02;24.50;;;21.73;;
21721;SDS011;11023;48.274;7.794;2022-08-19T10:26:31;22.23;;;19.83;;
21721;SDS011;11023;48.274;7.794;2022-08-19T10:28:59;22.50;;;19.75;;
21721;SDS011;11023;48.274;7.794;2022-08-19T10:31:29;22.02;;;18.55;;
21721;SDS011;11023;48.274;7.794;2022-08-19T10:33:56;25.40;;;19.00;;
21721;SDS011;11023;48.274;7.794;2022-08-19T10:36:24;23.63;;;19.45;;
21721;SDS011;11023;48.274;7.794;2022-08-19T10:38:53;24.30;;;20.48;;
21721;SDS011;11023;48.274;7.794;2022-08-19T10:41:24;20.13;;;17.95;;
21721;SDS011;11023;48.274;7.794;2022-08-19T10:43:52;21.27;;;18.38;;
21721;SDS011;11023;48.274;7.794;2022-08-19T10:46:19;22.63;;;19.35;;
21721;SDS011;11023;48.274;7.794;2022-08-19T10:48:47;22.45;;;19.45;;
21721;SDS011;11023;48.274;7.794;2022-08-19T10:51:13;24.95;;;20.63;;
21721;SDS011;11023;48.274;7.794;2022-08-19T10:53:57;20.98;;;18.30;;
21721;SDS011;11023;48.274;7.794;2022-08-19T10:56:25;18.70;;;16.70;;
21721;SDS011;11023;48.274;7.794;2022-08-19T10:59:10;20.98;;;17.98;;
21721;SDS011;11023;48.274;7.794;2022-08-19T11:01:38;22.05;;;18.80;;
21721;SDS011;11023;48.274;7.794;2022-08-19T11:04:05;28.02;;;21.10;;
21721;SDS011;11023;48.274;7.794;2022-08-19T11:06:33;20.40;;;18.02;;
21721;SDS011;11023;48.274;7.794;2022-08-19T11:08:59;24.50;;;20.77;;
21721;SDS011;11023;48.274;7.794;2022-08-19T11:11:25;21.52;;;17.75;;
21721;SDS011;11023;48.274;7.794;2022-08-19T11:13:51;22.33;;;19.42;;
21721;SDS011;11023;48.274;7.794;2022-08-19T11:16:23;23.15;;;18.48;;
21721;SDS011;11023;48.274;7.794;2022-08-19T11:18:52;19.40;;;17.15;;
21721;SDS011;11023;48.274;7.794;2022-08-19T11:21:33;22.30;;;17.40;;
21721;SDS011;11023;48.274;7.794;2022-08-19T11:24:02;25.92;;;19.25;;
21721;SDS011;11023;48.274;7.794;2022-08-19T11:26:31;21.27;;;19.02;;
21721;SDS011;11023;48.274;7.794;2022-08-19T11:28:58;21.90;;;18.08;;
21721;SDS011;11023;48.274;7.794;2022-08-19T11:31:31;23.73;;;19.95;;
21721;SDS011;11023;48.274;7.794;2022-08-19T11:33:59;21.77;;;18.60;;
21721;SDS011;11023;48.274;7.794;2022-08-19T11:36:27;20.55;;;18.42;;
21721;SDS011;11023;48.274;7.794;2022-08-19T11:38:54;20.58;;;18.17;;
21721;SDS011;11023;48.274;7.794;2022-08-19T11:41:20;25.83;;;20.67;;
21721;SDS011;11023;48.274;7.794;2022-08-19T11:43:48;20.90;;;17.80;;
21721;SDS011;11023;48.274;7.794;2022-08-19T11:46:15;20.17;;;16.80;;
21721;SDS011;11023;48.274;7.794;2022-08-19T11:48:42;22.27;;;18.77;;
21721;SDS011;11023;48.274;7.794;2022-08-19T11:51:13;25.42;;;19.50;;
21721;SDS011;11023;48.274;7.794;2022-08-19T11:53:40;21.75;;;18.95;;
21721;SDS011;11023;48.274;7.794;2022-08-19T11:56:07;22.90;;;19.73;;
21721;SDS011;11023;48.274;7.794;2022-08-19T11:58:33;22.45;;;19.10;;
21721;SDS011;11023;48.274;7.794;2022-08-19T12:01:01;26.88;;;20.88;;
21721;SDS011;11023;48.274;7.794;2022-08-19T12:03:31;21.70;;;18.35;;
21721;SDS011;11023;48.274;7.794;2022-08-19T12:05:57;17.27;;;15.48;;
21721;SDS011;11023;48.274;7.794;2022-08-19T12:08:23;18.13;;;16.10;;
21721;SDS011;11023;48.274;7.794;2022-08-19T12:10:48;19.15;;;15.88;;
21721;SDS011;11023;48.274;7.794;2022-08-19T12:13:14;17.50;;;15.40;;
21721;SDS011;11023;48.274;7.794;2022-08-19T12:15:45;19.88;;;16.70;;
21721;SDS011;11023;48.274;7.794;2022-08-19T12:18:12;22.50;;;14.73;;
21721;SDS011;11023;48.274;7.794;2022-08-19T12:20:39;20.88;;;15.63;;
21721;SDS011;11023;48.274;7.794;2022-08-19T12:23:06;19.67;;;17.33;;
21721;SDS011;11023;48.274;7.794;2022-08-19T12:25:34;19.85;;;12.38;;
21721;SDS011;11023;48.274;7.794;2022-08-19T12:28:02;23.23;;;16.42;;
21721;SDS011;11023;48.274;7.794;2022-08-19T12:30:28;21.25;;;17.00;;
21721;SDS011;11023;48.274;7.794;2022-08-19T12:32:54;21.88;;;18.55;;
21721;SDS011;11023;48.274;7.794;2022-08-19T12:35:20;17.77;;;15.82;;
21721;SDS011;11023;48.274;7.794;2022-08-19T12:37:46;21.55;;;19.17;;
21721;SDS011;11023;48.274;7.794;2022-08-19T12:40:13;24.52;;;16.30;;
21721;SDS011;11023;48.274;7.794;2022-08-19T12:42:40;20.50;;;14.13;;
21721;SDS011;11023;48.274;7.794;2022-08-19T12:45:07;15.32;;;13.15;;
21721;SDS011;11023;48.274;7.794;2022-08-19T12:47:37;16.60;;;13.65;;
21721;SDS011;11023;48.274;7.794;2022-08-19T12:50:03;18.70;;;12.80;;
21721;SDS011;11023;48.274;7.794;2022-08-19T12:52:31;15.68;;;14.13;;
21721;SDS011;11023;48.274;7.794;2022-08-19T12:54:57;14.50;;;13.02;;
21721;SDS011;11023;48.274;7.794;2022-08-19T12:57:23;17.17;;;15.35;;
21721;SDS011;11023;48.274;7.794;2022-08-19T12:59:52;13.38;;;12.07;;
21721;SDS011;11023;48.274;7.794;2022-08-19T13:02:20;15.30;;;12.55;;
21721;SDS011;11023;48.274;7.794;2022-08-19T13:04:47;12.60;;;11.40;;
21721;SDS011;11023;48.274;7.794;2022-08-19T13:07:13;16.92;;;12.63;;
21721;SDS011;11023;48.274;7.794;2022-08-19T13:09:39;12.90;;;11.60;;
21721;SDS011;11023;48.274;7.794;2022-08-19T13:12:07;16.60;;;14.88;;
21721;SDS011;11023;48.274;7.794;2022-08-19T13:14:37;10.98;;;9.90;;
21721;SDS011;11023;48.274;7.794;2022-08-19T13:17:05;13.40;;;10.93;;
21721;SDS011;11023;48.274;7.794;2022-08-19T13:19:31;12.20;;;11.00;;
21721;SDS011;11023;48.274;7.794;2022-08-19T13:21:57;12.27;;;11.05;;
21721;SDS011;11023;48.274;7.794;2022-08-19T13:24:23;12.27;;;11.07;;
21721;SDS011;11023;48.274;7.794;2022-08-19T13:26:49;15.60;;;11.30;;
21721;SDS011;11023;48.274;7.794;2022-08-19T13:29:15;11.15;;;10.02;;
21721;SDS011;11023;48.274;7.794;2022-08-19T13:31:59;10.88;;;9.70;;
21721;SDS011;11023;48.274;7.794;2022-08-19T13:34:43;12.18;;;10.73;;
21721;SDS011;11023;48.274;7.794;2022-08-19T13:37:11;11.05;;;10.05;;
21721;SDS011;11023;48.274;7.794;2022-08-19T13:39:37;9.90;;;8.95;;
21721;SDS011;11023;48.274;7.794;2022-08-19T13:42:03;9.60;;;8.77;;
21721;SDS011;11023;48.274;7.794;2022-08-19T13:44:29;10.43;;;7.82;;
21721;SDS011;11023;48.274;7.794;2022-08-19T13:47:02;9.18;;;8.27;;
21721;SDS011;11023;48.274;7.794;2022-08-19T13:49:34;10.60;;;8.55;;
21721;SDS011;11023;48.274;7.794;2022-08-19T13:52:01;9.02;;;8.18;;
21721;SDS011;11023;48.274;7.794;2022-08-19T13:54:27;9.10;;;8.30;;
21721;SDS011;11023;48.274;7.794;2022-08-19T13:56:53;11.50;;;9.57;;
21721;SDS011;11023;48.274;7.794;2022-08-19T13:59:19;9.43;;;8.43;;
21721;SDS011;11023;48.274;7.794;2022-08-19T14:01:44;9.30;;;8.48;;
21721;SDS011;11023;48.274;7.794;2022-08-19T14:04:10;12.40;;;9.05;;
21721;SDS011;11023;48.274;7.794;2022-08-19T14:06:36;9.40;;;8.50;;
21721;SDS011;11023;48.274;7.794;2022-08-19T14:09:01;9.27;;;8.40;;
21721;SDS011;11023;48.274;7.794;2022-08-19T14:11:28;10.15;;;9.15;;
21721;SDS011;11023;48.274;7.794;2022-08-19T14:13:54;10.15;;;9.10;;
21721;SDS011;11023;48.274;7.794;2022-08-19T14:16:19;10.35;;;9.40;;
21721;SDS011;11023;48.274;7.794;2022-08-19T14:18:46;10.07;;;9.07;;
21721;SDS011;11023;48.274;7.794;2022-08-19T14:21:16;9.77;;;8.75;;
21721;SDS011;11023;48.274;7.794;2022-08-19T14:23:45;10.38;;;8.70;;
21721;SDS011;11023;48.274;7.794;2022-08-19T14:26:12;11.07;;;9.13;;
21721;SDS011;11023;48.274;7.794;2022-08-19T14:28:40;11.05;;;8.68;;
21721;SDS011;11023;48.274;7.794;2022-08-19T14:31:07;10.93;;;9.68;;
21721;SDS011;11023;48.274;7.794;2022-08-19T14:33:34;9.60;;;8.50;;
21721;SDS011;11023;48.274;7.794;2022-08-19T14:36:00;11.18;;;9.90;;
21721;SDS011;11023;48.274;7.794;2022-08-19T14:38:26;10.90;;;9.88;;
21721;SDS011;11023;48.274;7.794;2022-08-19T14:40:51;10.60;;;9.35;;
21721;SDS011;11023;48.274;7.794;2022-08-19T14:43:17;11.90;;;9.50;;
21721;SDS011;11023;48.274;7.794;2022-08-19T14:45:43;10.93;;;9.73;;